Sky Queen — 3EHV9 — position and weather

sailwx.info

Track history (hours):
 
Tides and Currents Weather Stations Pressure Air Temp Water Temp Dewpoint Dewpoint Depression Visibility Wind Speed Wind Dir Waves Ship Positions

Sky Queen

Last reported at 2018-Jan-10 22:35 UTC. Time now 2018-Jan-22 10:28 UTC.
Position N 34°58' E 140°09'.
Warning: this ship's position is 11 days out of date.

Length 89 m; draft 5 m.

Type: Cargo ship. MMSI: 372259000.

Date/timePositionNaut miles runAvg speedWind from/ knotsBaromVisibWave heightAir tempDewpointWater temp
2018-Jan-10 22:35N 34°58' E 140°09'36 8.4
2018-Jan-10 18:14N 34°39' E 139°31'311.1
2018-Jan-10 17:59N 34°38' E 139°28'610.9
2018-Jan-10 17:25N 34°38' E 139°20'510.9
2018-Jan-10 17:00N 34°36' E 139°15'611.4
2018-Jan-10 16:28N 34°34' E 139°08'611.7
2018-Jan-10 15:55N 34°32' E 139°01'511.3
2018-Jan-10 15:30N 34°32' E 138°55'196 7.5
2018-Jan-09 13:23N 33°51' E 135°03'3 8.5
2018-Jan-09 13:00N 33°54' E 135°00'4 8.4
2018-Jan-09 12:30N 33°58' E 134°60'4 8.5
2018-Jan-09 12:00N 34°02' E 134°59'4 8.6
2018-Jan-09 11:30N 34°07' E 134°59'5 9.1
2018-Jan-09 11:00N 34°11' E 134°59'510.1
2018-Jan-09 10:30N 34°16' E 134°59'5 9.7
2018-Jan-09 10:01N 34°21' E 134°60'4 7.3
2018-Jan-09 09:30N 34°21' E 135°04'2 4.4
2018-Jan-09 09:00N 34°22' E 135°07'0 0.0
2018-Jan-09 08:30N 34°22' E 135°07'0 0.0
2018-Jan-09 08:00N 34°22' E 135°07'0 0.1
2018-Jan-09 07:30N 34°22' E 135°07'0 0.0
2018-Jan-09 07:00N 34°22' E 135°07'0 0.0
2018-Jan-09 06:30N 34°22' E 135°07'0 0.0
2018-Jan-09 06:01N 34°22' E 135°07'0 0.0
2018-Jan-09 05:31N 34°22' E 135°07'0 0.0
2018-Jan-09 05:00N 34°22' E 135°07'0 0.0
2018-Jan-09 04:30N 34°22' E 135°07'0 0.0
2018-Jan-09 04:01N 34°22' E 135°07'0 0.0
2018-Jan-09 03:30N 34°22' E 135°07'0 0.0
2018-Jan-09 03:01N 34°22' E 135°07'0 0.0
2018-Jan-09 02:30N 34°22' E 135°07'0 0.0
2018-Jan-09 02:00N 34°22' E 135°07'0 0.0
2018-Jan-09 01:31N 34°22' E 135°07'0 0.0
2018-Jan-09 01:01N 34°22' E 135°07'0 0.8
2018-Jan-09 00:31N 34°22' E 135°06'4 8.1
2018-Jan-09 00:01N 34°24' E 135°02'2 3.8
2018-Jan-08 23:30N 34°25' E 135°00'5 9.1
2018-Jan-08 23:00N 34°29' E 135°01'4 9.0
2018-Jan-08 22:30N 34°33' E 135°03'4 8.5
2018-Jan-08 22:01N 34°37' E 134°59'510.5
2018-Jan-08 21:31N 34°35' E 134°53'5 9.4
2018-Jan-08 21:00N 34°33' E 134°48'5 8.9
2018-Jan-08 20:30N 34°31' E 134°43'4 8.8
2018-Jan-08 20:01N 34°29' E 134°38'4 8.8
2018-Jan-08 19:31N 34°28' E 134°33'5 8.8
2018-Jan-08 18:56N 34°26' E 134°28'88 7.2
2018-Jan-08 06:46N 34°01' E 132°46'2 8.7
2018-Jan-08 06:30N 33°59' E 132°45'5 9.1
2018-Jan-08 06:00N 33°56' E 132°41'25 8.8
2018-Jan-08 03:10N 33°43' E 132°15'19 8.0
2018-Jan-08 00:48N 33°44' E 131°52'3 7.9
2018-Jan-08 00:27N 33°45' E 131°49'3 7.6
2018-Jan-08 00:00N 33°45' E 131°45'4 7.7
2018-Jan-07 23:30N 33°46' E 131°40'4 7.5
2018-Jan-07 23:01N 33°47' E 131°36'4 7.6
2018-Jan-07 22:31N 33°47' E 131°32'4 7.5
2018-Jan-07 22:00N 33°48' E 131°27'4 7.9
2018-Jan-07 21:30N 33°49' E 131°22'4 8.3
2018-Jan-07 21:01N 33°50' E 131°18'4 8.3
2018-Jan-07 20:30N 33°51' E 131°13'4 8.0
2018-Jan-07 20:00N 33°53' E 131°09'4 8.2
2018-Jan-07 19:30N 33°55' E 131°05'4 8.2
2018-Jan-07 19:01N 33°58' E 131°01'3 7.0
2018-Jan-07 18:30N 33°57' E 130°57'3 6.6
2018-Jan-07 18:01N 33°54' E 130°55'3 5.5
2018-Jan-07 17:30N 33°56' E 130°53'3 6.4
2018-Jan-07 17:00N 33°59' E 130°53'4 7.6
2018-Jan-07 16:31N 34°02' E 130°50'4 7.5
2018-Jan-07 16:00N 34°05' E 130°47'4 7.5
2018-Jan-07 15:31N 34°07' E 130°43'4 7.5
2018-Jan-07 15:01N 34°09' E 130°39'4 7.4
2018-Jan-07 14:30N 34°11' E 130°36'4 7.4
2018-Jan-07 14:00N 34°14' E 130°32'4 7.2
2018-Jan-07 13:30N 34°16' E 130°28'4 7.2
2018-Jan-07 13:00N 34°18' E 130°25'4 7.0
2018-Jan-07 12:25N 34°21' E 130°21'3 7.1
2018-Jan-07 12:00N 34°22' E 130°18'  
Track history (hours):
 
Tides and Currents Weather Stations Pressure Air Temp Water Temp Dewpoint Dewpoint Depression Visibility Wind Speed Wind Dir Waves Ship Positions

Sky Queen

Last reported at 2018-Jan-10 22:35 UTC. Time now 2018-Jan-22 10:28 UTC.
Position N 34°58' E 140°09'.
Warning: this ship's position is 11 days out of date.

Length 89 m; draft 5 m.

Type: Cargo ship. MMSI: 372259000.

Date/timePositionNaut miles runAvg speedWind from/ knotsBaromVisibWave heightAir tempDewpointWater temp
2018-Jan-10 22:35N 34°58' E 140°09'36 8.4
2018-Jan-10 18:14N 34°39' E 139°31'311.1
2018-Jan-10 17:59N 34°38' E 139°28'610.9
2018-Jan-10 17:25N 34°38' E 139°20'510.9
2018-Jan-10 17:00N 34°36' E 139°15'611.4
2018-Jan-10 16:28N 34°34' E 139°08'611.7
2018-Jan-10 15:55N 34°32' E 139°01'511.3
2018-Jan-10 15:30N 34°32' E 138°55'196 7.5
2018-Jan-09 13:23N 33°51' E 135°03'3 8.5
2018-Jan-09 13:00N 33°54' E 135°00'4 8.4
2018-Jan-09 12:30N 33°58' E 134°60'4 8.5
2018-Jan-09 12:00N 34°02' E 134°59'4 8.6
2018-Jan-09 11:30N 34°07' E 134°59'5 9.1
2018-Jan-09 11:00N 34°11' E 134°59'510.1
2018-Jan-09 10:30N 34°16' E 134°59'5 9.7
2018-Jan-09 10:01N 34°21' E 134°60'4 7.3
2018-Jan-09 09:30N 34°21' E 135°04'2 4.4
2018-Jan-09 09:00N 34°22' E 135°07'0 0.0
2018-Jan-09 08:30N 34°22' E 135°07'0 0.0
2018-Jan-09 08:00N 34°22' E 135°07'0 0.1
2018-Jan-09 07:30N 34°22' E 135°07'0 0.0
2018-Jan-09 07:00N 34°22' E 135°07'0 0.0
2018-Jan-09 06:30N 34°22' E 135°07'0 0.0
2018-Jan-09 06:01N 34°22' E 135°07'0 0.0
2018-Jan-09 05:31N 34°22' E 135°07'0 0.0
2018-Jan-09 05:00N 34°22' E 135°07'0 0.0
2018-Jan-09 04:30N 34°22' E 135°07'0 0.0
2018-Jan-09 04:01N 34°22' E 135°07'0 0.0
2018-Jan-09 03:30N 34°22' E 135°07'0 0.0
2018-Jan-09 03:01N 34°22' E 135°07'0 0.0
2018-Jan-09 02:30N 34°22' E 135°07'0 0.0
2018-Jan-09 02:00N 34°22' E 135°07'0 0.0
2018-Jan-09 01:31N 34°22' E 135°07'0 0.0
2018-Jan-09 01:01N 34°22' E 135°07'0 0.8
2018-Jan-09 00:31N 34°22' E 135°06'4 8.1
2018-Jan-09 00:01N 34°24' E 135°02'2 3.8
2018-Jan-08 23:30N 34°25' E 135°00'5 9.1
2018-Jan-08 23:00N 34°29' E 135°01'4 9.0
2018-Jan-08 22:30N 34°33' E 135°03'4 8.5
2018-Jan-08 22:01N 34°37' E 134°59'510.5
2018-Jan-08 21:31N 34°35' E 134°53'5 9.4
2018-Jan-08 21:00N 34°33' E 134°48'5 8.9
2018-Jan-08 20:30N 34°31' E 134°43'4 8.8
2018-Jan-08 20:01N 34°29' E 134°38'4 8.8
2018-Jan-08 19:31N 34°28' E 134°33'5 8.8
2018-Jan-08 18:56N 34°26' E 134°28'88 7.2
2018-Jan-08 06:46N 34°01' E 132°46'2 8.7
2018-Jan-08 06:30N 33°59' E 132°45'5 9.1
2018-Jan-08 06:00N 33°56' E 132°41'25 8.8
2018-Jan-08 03:10N 33°43' E 132°15'19 8.0
2018-Jan-08 00:48N 33°44' E 131°52'3 7.9
2018-Jan-08 00:27N 33°45' E 131°49'3 7.6
2018-Jan-08 00:00N 33°45' E 131°45'4 7.7
2018-Jan-07 23:30N 33°46' E 131°40'4 7.5
2018-Jan-07 23:01N 33°47' E 131°36'4 7.6
2018-Jan-07 22:31N 33°47' E 131°32'4 7.5
2018-Jan-07 22:00N 33°48' E 131°27'4 7.9
2018-Jan-07 21:30N 33°49' E 131°22'4 8.3
2018-Jan-07 21:01N 33°50' E 131°18'4 8.3
2018-Jan-07 20:30N 33°51' E 131°13'4 8.0
2018-Jan-07 20:00N 33°53' E 131°09'4 8.2
2018-Jan-07 19:30N 33°55' E 131°05'4 8.2
2018-Jan-07 19:01N 33°58' E 131°01'3 7.0
2018-Jan-07 18:30N 33°57' E 130°57'3 6.6
2018-Jan-07 18:01N 33°54' E 130°55'3 5.5
2018-Jan-07 17:30N 33°56' E 130°53'3 6.4
2018-Jan-07 17:00N 33°59' E 130°53'4 7.6
2018-Jan-07 16:31N 34°02' E 130°50'4 7.5
2018-Jan-07 16:00N 34°05' E 130°47'4 7.5
2018-Jan-07 15:31N 34°07' E 130°43'4 7.5
2018-Jan-07 15:01N 34°09' E 130°39'4 7.4
2018-Jan-07 14:30N 34°11' E 130°36'4 7.4
2018-Jan-07 14:00N 34°14' E 130°32'4 7.2
2018-Jan-07 13:30N 34°16' E 130°28'4 7.2
2018-Jan-07 13:00N 34°18' E 130°25'4 7.0
2018-Jan-07 12:25N 34°21' E 130°21'3 7.1
2018-Jan-07 12:00N 34°22' E 130°18'  

Dump ship's entire track history